KCEU/CEU METAR and TAF weather

Enter ICAO airport designator
Station Type Date Time Source
KCEU METAR 2021/07/30 06:54 UTC NOAA

KCEU 300654Z AUTO 27007KT 10SM CLR 24/20 A2997 RMK AO2 SLP136 T02390200 $


Station Type Date Time Source
KCEU Decoded METAR 2021/07/30 06:54 UTC NOAA

CLEMSON-OCONEE COUNTY AIRPORT , SC, United States (KCEU) 34-40N 082-53W 268M
Jul 30, 2021 - 02:54 AM EDT / 2021.07.30 0654 UTC
Wind: from the W (270 degrees) at 8 MPH (7 KT):0
Visibility: 10 mile(s):0
Sky conditions: clear
Temperature: 75.0 F (23.9 C)
Dew Point: 68.0 F (20.0 C)
Relative Humidity: 78%
Pressure (altimeter): 29.97 in. Hg (1014 hPa)
ob: KCEU 300654Z AUTO 27007KT 10SM CLR 24/20 A2997 RMK AO2 SLP136 T02390200
cycle: 7

Station Type Date Time Source
KCEU TAF UTC NOAA

Error!

Example: see airport list